Flight Track Log - Related Links

Times and Time Zones

All times are in EDT time to prevent confusion due to time zone crossing. See the EGF2907 flight status page for this flight to view local times or setup timezone preferences in your user account.

Time Position Orientation Groundspeed Altitude Reporting Facility
EDT Latitude Longitude Course Direction KTS MPH feet Rate Location/Type
Sat 05:32:05 PM 32.8500 -97.0167 68° East 187 215 3,100  Level Dallas / Fort Worth TRACON
Sat 05:33:00 PM 32.8030 -96.7587 53° Northeast  Level FlightAware Approximate
Sat 05:33:00 PM 32.8000 -97.0000 164° South 211 243 5,100  Level Dallas / Fort Worth TRACON
Sat 05:34:00 PM 32.8721 -96.6502 52° Northeast  Level FlightAware Approximate
Sat 05:34:07 PM 32.8333 -96.9167 65° Northeast 269 310 7,300  Level Dallas / Fort Worth TRACON
Sat 05:35:00 PM 32.9433 -96.5434 52° Northeast  Level FlightAware Approximate
Sat 05:35:07 PM 32.8667 -96.8333 65° Northeast 297 342 9,000  Level Dallas / Fort Worth TRACON
Sat 05:36:00 PM 33.0060 -96.4294 57° Northeast  Level FlightAware Approximate
Sat 05:36:39 PM 32.9253 -96.6958 63° Northeast 310 357 11,300  Level Fort Worth Center
Sat 05:37:00 PM 33.0675 -96.3143 68° East  Level FlightAware Approximate
Sat 05:37:39 PM 32.9725 -96.5864 63° Northeast 322 371 12,200  Level Fort Worth Center
Sat 05:38:39 PM 33.0239 -96.4694 62° Northeast 363 418 14,100 1,600 Climbing Fort Worth Center
Sat 05:39:39 PM 33.0731 -96.3572 62° Northeast 371 427 15,400 1,450 Climbing Fort Worth Center
Sat 05:40:39 PM 33.1117 -96.2353 69° East 383 441 17,000 1,400 Climbing Fort Worth Center
Sat 05:41:39 PM 33.1481 -96.1133 70° East 383 441 18,200 1,400 Climbing Fort Worth Center
Sat 05:42:39 PM 33.1864 -95.9886 70° East 393 452 19,800 1,500 Climbing Fort Worth Center
Sat 05:43:39 PM 33.2225 -95.8614 71° East 403 464 21,200 1,450 Climbing Fort Worth Center
Sat 05:44:39 PM 33.2606 -95.7317 71° East 409 471 22,700 1,400 Climbing Fort Worth Center
Sat 05:45:39 PM 33.2986 -95.6092 70° East 409 471 24,000 1,400 Climbing Fort Worth Center
Sat 05:46:39 PM 33.3339 -95.4667 73° East 409 471 25,500 1,450 Climbing Fort Worth Center
Sat 05:47:39 PM 33.3714 -95.3339 71° East 409 471 26,900 1,450 Climbing Fort Worth Center
Sat 05:48:39 PM 33.4089 -95.2036 71° East 409 471 28,400 1,450 Climbing Fort Worth Center
Sat 05:49:39 PM 33.4483 -95.0733 70° East 409 471 29,800 1,450 Climbing Fort Worth Center
Sat 05:50:39 PM 33.4856 -94.9478 70° East 409 471 31,300 1,450 Climbing Fort Worth Center
Sat 05:51:39 PM 33.5225 -94.8172 71° East 409 471 32,700 1,200 Climbing Fort Worth Center
Sat 05:52:39 PM 33.5575 -94.6892 72° East 409 471 33,700 791 Climbing Fort Worth Center
Sat 05:54:41 PM 33.6369 -94.4214 70° East 420 483 35,100 659 Climbing Memphis Center
Sat 05:55:41 PM 33.6750 -94.2836 72° East 420 483 35,700 595 Climbing Memphis Center
Sat 05:56:42 PM 33.7228 -94.1483 67° East 431 496 36,300 550 Climbing Memphis Center
Sat 05:57:41 PM 33.7892 -94.0214 58° Northeast 431 496 36,800 350 Climbing Memphis Center
Sat 05:58:42 PM 33.8617 -93.9042 53° Northeast 436 502 37,000 100 Climbing Memphis Center
Sat 05:59:41 PM 33.9483 -93.7900 48° Northeast 441 507 37,000  Level Memphis Center
Sat 06:00:41 PM 34.0328 -93.6731 49° Northeast 459 528 37,000  Level Memphis Center
Sat 06:01:41 PM 34.1236 -93.5486 49° Northeast 476 548 37,000  Level Memphis Center
Sat 06:02:42 PM 34.2125 -93.4189 50° Northeast 482 555 37,000  Level Memphis Center
Sat 06:03:41 PM 34.3031 -93.2939 49° Northeast 489 563 37,000  Level Memphis Center
Sat 06:04:42 PM 34.3894 -93.1686 50° Northeast 494 568 37,000  Level Memphis Center
Sat 06:05:41 PM 34.4758 -93.0428 50° Northeast 489 563 37,000  Level Memphis Center
Sat 06:06:41 PM 34.5639 -92.9219 48° Northeast 489 563 37,000  Level Memphis Center
Sat 06:07:42 PM 34.6639 -92.8139 42° Northeast 477 549 37,000  Level Memphis Center
Sat 06:08:42 PM 34.7578 -92.7131 41° Northeast 477 549 37,000  Level Memphis Center
Sat 06:09:41 PM 34.8558 -92.6044 42° Northeast 482 555 37,000  Level Memphis Center
Sat 06:10:41 PM 34.9600 -92.4956 41° Northeast 482 555 37,000  Level Memphis Center
Sat 06:11:41 PM 35.0619 -92.3842 42° Northeast 488 562 37,000  Level Memphis Center
Sat 06:12:41 PM 35.1517 -92.2517 50° Northeast 483 556 37,000  Level Memphis Center
Sat 06:13:42 PM 35.2369 -92.1189 52° Northeast 493 567 37,000  Level Memphis Center
Sat 06:14:41 PM 35.3200 -91.9908 51° Northeast 487 560 37,000  Level Memphis Center
Sat 06:15:42 PM 35.4050 -91.8625 51° Northeast 487 560 37,000  Level Memphis Center
Sat 06:16:41 PM 35.4881 -91.7339 52° Northeast 481 554 37,000  Level Memphis Center
Sat 06:17:41 PM 35.5769 -91.6028 50° Northeast 486 559 37,000  Level Memphis Center
Sat 06:18:41 PM 35.6636 -91.4686 51° Northeast 486 559 37,000  Level Memphis Center
Sat 06:19:42 PM 35.7439 -91.3392 53° Northeast 492 566 37,000  Level Memphis Center
Sat 06:20:41 PM 35.8306 -91.2044 52° Northeast 486 559 37,000  Level Memphis Center
Sat 06:21:41 PM 35.9147 -91.0722 52° Northeast 486 559 37,000  Level Memphis Center
Sat 06:22:41 PM 36.0008 -90.9394 51° Northeast 486 559 37,000  Level Memphis Center
Sat 06:23:42 PM 36.0828 -90.8064 53° Northeast 486 559 37,000  Level Memphis Center
Sat 06:24:41 PM 36.1686 -90.6706 52° Northeast 486 559 37,000  Level Memphis Center
Sat 06:25:41 PM 36.2564 -90.5372 51° Northeast 492 566 37,000  Level Memphis Center
Sat 06:26:42 PM 36.3400 -90.4033 52° Northeast 487 560 37,000 -198 Level Memphis Center
Sat 06:27:42 PM 36.4233 -90.2692 52° Northeast 487 560 36,600 -706 Descending Memphis Center
Sat 06:28:41 PM 36.5067 -90.1350 52° Northeast 487 560 35,600 -950 Descending Memphis Center
Sat 06:29:42 PM 36.5936 -89.9950 52° Northeast 482 555 34,700 -942 Descending Memphis Center
Sat 06:30:42 PM 36.6744 -89.8681 52° Northeast 477 549 33,700 -857 Descending Memphis Center
Sat 06:31:41 PM 36.7553 -89.7381 52° Northeast 472 543 33,000 -350 Descending Memphis Center
Sat 06:32:42 PM 36.8336 -89.6078 53° Northeast 472 543 33,000  Level Memphis Center
Sat 06:33:42 PM 36.9161 -89.4747 52° Northeast 472 543 33,000  Level Memphis Center
Sat 06:34:42 PM 36.9964 -89.3414 53° Northeast 472 543 33,000  Level Memphis Center
Sat 06:35:41 PM 37.0808 -89.2075 52° Northeast 477 549 33,000  Level Memphis Center
Sat 06:36:41 PM 37.1628 -89.0683 54° Northeast 482 555 33,000 -100 Level Memphis Center
Sat 06:37:41 PM 37.2444 -88.9317 53° Northeast 488 562 32,800 -595 Descending Memphis Center
Sat 06:38:42 PM 37.3261 -88.7944 53° Northeast 488 562 31,800 -900 Descending Memphis Center
Sat 06:39:41 PM 37.4078 -88.6597 53° Northeast 483 556 31,000 -308 Descending Memphis Center
Sat 06:41:18 PM 37.5236 -88.4558 54° Northeast 485 558 31,000  Level Indianapolis Center
Sat 06:42:19 PM 37.6033 -88.3150 54° Northeast 489 563 31,000  Level Indianapolis Center
Sat 06:43:20 PM 37.6672 -88.1425 65° Northeast 495 570 31,000  Level Indianapolis Center
Sat 06:44:22 PM 37.7278 -87.9831 64° Northeast 498 573 31,000  Level Indianapolis Center
Sat 06:45:23 PM 37.7947 -87.8058 64° Northeast 503 579 31,000  Level Indianapolis Center
Sat 06:46:25 PM 37.8550 -87.6469 64° Northeast 503 579 31,000  Level Indianapolis Center
Sat 06:47:26 PM 37.9142 -87.4889 65° Northeast 499 574 31,000 -98 Level Indianapolis Center
Sat 06:48:27 PM 37.9739 -87.3281 65° Northeast 502 578 30,800 -537 Descending Indianapolis Center
Sat 06:49:29 PM 38.0344 -87.1678 64° Northeast 504 580 29,900 -878 Descending Indianapolis Center
Sat 06:50:30 PM 38.0931 -87.0067 65° Northeast 509 586 29,000 -885 Descending Indianapolis Center
Sat 06:51:31 PM 38.1519 -86.8478 65° Northeast 505 581 28,100 -984 Descending Indianapolis Center
Sat 06:52:32 PM 38.2211 -86.6583 65° Northeast 497 572 27,000 -1,805 Descending Indianapolis Center
Sat 06:53:34 PM 38.2772 -86.5047 65° Northeast 482 555 24,400 -2,829 Descending Indianapolis Center
Sat 06:54:35 PM 38.3292 -86.3639 65° Northeast 444 511 21,200 -1,659 Descending Indianapolis Center
Sat 06:55:37 PM 38.3775 -86.2339 65° Northeast 410 472 21,000 -146 Descending Indianapolis Center
Sat 06:56:38 PM 38.4233 -86.0994 66° East 414 476 20,900 -1,230 Descending Indianapolis Center
Sat 06:57:39 PM 38.4747 -85.9583 65° Northeast 434 499 18,500 -2,262 Descending Indianapolis Center
Sat 06:58:40 PM 38.5267 -85.8172 65° Northeast 439 505 16,300 -2,341 Descending Indianapolis Center
Sat 06:59:42 PM 38.5731 -85.6836 66° East 419 482 13,700 -2,439 Descending Indianapolis Center
Sat 07:00:43 PM 38.6244 -85.5614 62° Northeast 396 456 11,300 -1,328 Descending Indianapolis Center
Sat 07:01:44 PM 38.6753 -85.4483 60° Northeast 369 425 11,000 -148 Descending Indianapolis Center
Sat 07:02:45 PM 38.7258 -85.3356 60° Northeast 364 419 11,000 -246 Level Indianapolis Center
Sat 07:03:46 PM 38.7328 -85.2136 86° East 345 397 10,500 -927 Descending Indianapolis Center
Sat 07:04:48 PM 38.7528 -85.0958 78° East 279 321 9,100 -1,426 Descending Indianapolis Center
Sat 07:05:48 PM 38.7669 -85.0019 79° East 269 310 7,600 -1,388 Descending Indianapolis Center
Sat 07:06:49 PM 38.7803 -84.9219 78° East 260 299 6,300 -1,130 Descending Indianapolis Center
Sat 07:08:22 PM 38.8167 -84.7833 71° East 244 281 4,700 -1,137 Descending Cincinnati TRACON
Sat 07:09:22 PM 38.8667 -84.7167 46° Northeast 244 281 3,400 -1,300 Descending Cincinnati TRACON

Login

Don't have an account? Register now (free) for customized features, flight alerts, and more!